sensor_id;sensor_type;location;lat;lon;timestamp;temperature;humidity
6333;DHT22;3199;49.102;8.856;2023-03-01T00:00:52;-0.70;99.90
6333;DHT22;3199;49.102;8.856;2023-03-01T00:03:18;-0.70;99.90
6333;DHT22;3199;49.102;8.856;2023-03-01T00:05:45;-0.70;99.90
6333;DHT22;3199;49.102;8.856;2023-03-01T00:08:11;-0.70;99.90
6333;DHT22;3199;49.102;8.856;2023-03-01T00:10:36;-0.70;99.90
6333;DHT22;3199;49.102;8.856;2023-03-01T00:13:02;-0.80;99.90
6333;DHT22;3199;49.102;8.856;2023-03-01T00:15:30;-0.80;99.90
6333;DHT22;3199;49.102;8.856;2023-03-01T00:17:56;-0.80;99.90
6333;DHT22;3199;49.102;8.856;2023-03-01T00:20:22;-0.80;99.90
6333;DHT22;3199;49.102;8.856;2023-03-01T00:22:48;-0.80;99.90
6333;DHT22;3199;49.102;8.856;2023-03-01T00:25:13;-0.80;99.90
6333;DHT22;3199;49.102;8.856;2023-03-01T00:27:39;-0.80;99.90
6333;DHT22;3199;49.102;8.856;2023-03-01T00:30:05;-0.80;99.90
6333;DHT22;3199;49.102;8.856;2023-03-01T00:32:30;-0.80;99.90
6333;DHT22;3199;49.102;8.856;2023-03-01T00:34:56;-0.90;99.90
6333;DHT22;3199;49.102;8.856;2023-03-01T00:37:23;-0.90;99.90
6333;DHT22;3199;49.102;8.856;2023-03-01T00:39:49;-0.90;99.90
6333;DHT22;3199;49.102;8.856;2023-03-01T00:42:15;-0.90;99.90
6333;DHT22;3199;49.102;8.856;2023-03-01T00:44:41;-0.90;99.90
6333;DHT22;3199;49.102;8.856;2023-03-01T00:47:06;-0.90;99.90
6333;DHT22;3199;49.102;8.856;2023-03-01T00:49:32;-0.90;99.90
6333;DHT22;3199;49.102;8.856;2023-03-01T00:51:57;-0.90;99.90
6333;DHT22;3199;49.102;8.856;2023-03-01T00:54:23;-0.90;99.90
6333;DHT22;3199;49.102;8.856;2023-03-01T00:56:48;-0.90;99.90
6333;DHT22;3199;49.102;8.856;2023-03-01T00:59:14;-1.00;99.90
6333;DHT22;3199;49.102;8.856;2023-03-01T01:01:39;-1.00;99.90
6333;DHT22;3199;49.102;8.856;2023-03-01T01:04:09;-1.00;99.90
6333;DHT22;3199;49.102;8.856;2023-03-01T01:06:39;-1.00;99.90
6333;DHT22;3199;49.102;8.856;2023-03-01T01:09:12;-1.00;99.90
6333;DHT22;3199;49.102;8.856;2023-03-01T01:11:51;-1.00;99.90
6333;DHT22;3199;49.102;8.856;2023-03-01T01:14:18;-1.00;99.90
6333;DHT22;3199;49.102;8.856;2023-03-01T01:16:44;-1.00;99.90
6333;DHT22;3199;49.102;8.856;2023-03-01T01:19:11;-1.00;99.90
6333;DHT22;3199;49.102;8.856;2023-03-01T01:21:36;-1.10;99.90
6333;DHT22;3199;49.102;8.856;2023-03-01T01:24:04;-1.10;99.90
6333;DHT22;3199;49.102;8.856;2023-03-01T01:26:32;-1.10;99.90
6333;DHT22;3199;49.102;8.856;2023-03-01T01:28:59;-1.10;99.90
6333;DHT22;3199;49.102;8.856;2023-03-01T01:31:26;-1.10;99.90
6333;DHT22;3199;49.102;8.856;2023-03-01T01:33:52;-1.10;99.90
6333;DHT22;3199;49.102;8.856;2023-03-01T01:36:18;-1.10;99.90
6333;DHT22;3199;49.102;8.856;2023-03-01T01:38:44;-1.10;99.90
6333;DHT22;3199;49.102;8.856;2023-03-01T01:41:11;-1.10;99.90
6333;DHT22;3199;49.102;8.856;2023-03-01T01:43:43;-1.10;99.90
6333;DHT22;3199;49.102;8.856;2023-03-01T01:51:28;-1.10;99.90
6333;DHT22;3199;49.102;8.856;2023-03-01T01:54:19;-1.10;99.90
6333;DHT22;3199;49.102;8.856;2023-03-01T01:56:52;-1.10;99.90
6333;DHT22;3199;49.102;8.856;2023-03-01T01:59:20;-1.10;99.90
6333;DHT22;3199;49.102;8.856;2023-03-01T02:01:50;-1.10;99.90
6333;DHT22;3199;49.102;8.856;2023-03-01T02:04:16;-1.10;99.90
6333;DHT22;3199;49.102;8.856;2023-03-01T02:07:04;-1.10;99.90
6333;DHT22;3199;49.102;8.856;2023-03-01T02:09:31;-1.10;99.90
6333;DHT22;3199;49.102;8.856;2023-03-01T02:11:57;-1.00;99.90
6333;DHT22;3199;49.102;8.856;2023-03-01T02:14:23;-1.00;99.90
6333;DHT22;3199;49.102;8.856;2023-03-01T02:16:49;-1.00;99.90
6333;DHT22;3199;49.102;8.856;2023-03-01T02:19:26;-1.00;99.90
6333;DHT22;3199;49.102;8.856;2023-03-01T02:22:05;-1.10;99.90
6333;DHT22;3199;49.102;8.856;2023-03-01T02:24:50;-1.10;99.90
6333;DHT22;3199;49.102;8.856;2023-03-01T02:27:19;-1.20;99.90
6333;DHT22;3199;49.102;8.856;2023-03-01T02:29:50;-1.20;99.90
6333;DHT22;3199;49.102;8.856;2023-03-01T02:32:16;-1.20;99.90
6333;DHT22;3199;49.102;8.856;2023-03-01T02:34:53;-1.20;99.90
6333;DHT22;3199;49.102;8.856;2023-03-01T02:37:20;-1.20;99.90
6333;DHT22;3199;49.102;8.856;2023-03-01T02:39:53;-1.20;99.90
6333;DHT22;3199;49.102;8.856;2023-03-01T02:42:26;-1.20;99.90
6333;DHT22;3199;49.102;8.856;2023-03-01T02:44:52;-1.20;99.90
6333;DHT22;3199;49.102;8.856;2023-03-01T02:47:19;-1.20;99.90
6333;DHT22;3199;49.102;8.856;2023-03-01T02:49:44;-1.20;99.90
6333;DHT22;3199;49.102;8.856;2023-03-01T02:52:43;-1.20;99.90
6333;DHT22;3199;49.102;8.856;2023-03-01T02:55:14;-1.20;99.90
6333;DHT22;3199;49.102;8.856;2023-03-01T02:57:43;-1.30;99.90
6333;DHT22;3199;49.102;8.856;2023-03-01T03:00:12;-1.30;99.90
6333;DHT22;3199;49.102;8.856;2023-03-01T03:02:48;-1.30;99.90
6333;DHT22;3199;49.102;8.856;2023-03-01T03:05:26;-1.40;99.90
6333;DHT22;3199;49.102;8.856;2023-03-01T03:07:52;-1.40;99.90
6333;DHT22;3199;49.102;8.856;2023-03-01T03:10:21;-1.40;99.90
6333;DHT22;3199;49.102;8.856;2023-03-01T03:12:56;-1.40;99.90
6333;DHT22;3199;49.102;8.856;2023-03-01T03:15:22;-1.40;99.90
6333;DHT22;3199;49.102;8.856;2023-03-01T03:17:48;-1.40;99.90
6333;DHT22;3199;49.102;8.856;2023-03-01T03:20:17;-1.50;99.90
6333;DHT22;3199;49.102;8.856;2023-03-01T03:22:45;-1.50;99.90
6333;DHT22;3199;49.102;8.856;2023-03-01T03:25:12;-1.50;99.90
6333;DHT22;3199;49.102;8.856;2023-03-01T03:27:38;-1.50;99.90
6333;DHT22;3199;49.102;8.856;2023-03-01T03:30:07;-1.50;99.90
6333;DHT22;3199;49.102;8.856;2023-03-01T03:32:35;-1.50;99.90
6333;DHT22;3199;49.102;8.856;2023-03-01T03:35:01;-1.50;99.90
6333;DHT22;3199;49.102;8.856;2023-03-01T03:37:27;-1.50;99.90
6333;DHT22;3199;49.102;8.856;2023-03-01T03:40:11;-1.50;99.90
6333;DHT22;3199;49.102;8.856;2023-03-01T03:42:40;-1.60;99.90
6333;DHT22;3199;49.102;8.856;2023-03-01T03:45:06;-1.60;99.90
6333;DHT22;3199;49.102;8.856;2023-03-01T03:47:32;-1.60;99.90
6333;DHT22;3199;49.102;8.856;2023-03-01T03:49:57;-1.60;99.90
6333;DHT22;3199;49.102;8.856;2023-03-01T03:52:23;-1.60;99.90
6333;DHT22;3199;49.102;8.856;2023-03-01T03:54:49;-1.60;99.90
6333;DHT22;3199;49.102;8.856;2023-03-01T03:57:14;-1.60;99.90
6333;DHT22;3199;49.102;8.856;2023-03-01T03:59:39;-1.60;99.90
6333;DHT22;3199;49.102;8.856;2023-03-01T04:02:05;-1.60;99.90
6333;DHT22;3199;49.102;8.856;2023-03-01T04:04:33;-1.60;99.90
6333;DHT22;3199;49.102;8.856;2023-03-01T04:06:58;-1.60;99.90
6333;DHT22;3199;49.102;8.856;2023-03-01T04:09:24;-1.60;99.90
6333;DHT22;3199;49.102;8.856;2023-03-01T04:11:49;-1.60;99.90
6333;DHT22;3199;49.102;8.856;2023-03-01T04:14:15;-1.60;99.90
6333;DHT22;3199;49.102;8.856;2023-03-01T04:16:40;-1.70;99.90
6333;DHT22;3199;49.102;8.856;2023-03-01T04:19:06;-1.70;99.90
6333;DHT22;3199;49.102;8.856;2023-03-01T04:21:32;-1.60;99.90
6333;DHT22;3199;49.102;8.856;2023-03-01T04:23:57;-1.70;99.90
6333;DHT22;3199;49.102;8.856;2023-03-01T04:26:23;-1.60;99.90
6333;DHT22;3199;49.102;8.856;2023-03-01T04:28:48;-1.60;99.90
6333;DHT22;3199;49.102;8.856;2023-03-01T04:31:17;-1.60;99.90
6333;DHT22;3199;49.102;8.856;2023-03-01T04:33:44;-1.60;99.90
6333;DHT22;3199;49.102;8.856;2023-03-01T04:36:11;-1.70;99.90
6333;DHT22;3199;49.102;8.856;2023-03-01T04:38:37;-1.70;99.90
6333;DHT22;3199;49.102;8.856;2023-03-01T04:41:10;-1.70;99.90
6333;DHT22;3199;49.102;8.856;2023-03-01T04:43:36;-1.70;99.90
6333;DHT22;3199;49.102;8.856;2023-03-01T04:46:08;-1.70;99.90
6333;DHT22;3199;49.102;8.856;2023-03-01T04:48:36;-1.70;99.90
6333;DHT22;3199;49.102;8.856;2023-03-01T04:51:02;-1.70;99.90
6333;DHT22;3199;49.102;8.856;2023-03-01T04:53:29;-1.70;99.90
6333;DHT22;3199;49.102;8.856;2023-03-01T04:55:55;-1.70;99.90
6333;DHT22;3199;49.102;8.856;2023-03-01T04:58:25;-1.70;99.90
6333;DHT22;3199;49.102;8.856;2023-03-01T05:00:52;-1.70;99.90
6333;DHT22;3199;49.102;8.856;2023-03-01T05:03:18;-1.70;99.90
6333;DHT22;3199;49.102;8.856;2023-03-01T05:05:45;-1.80;99.90
6333;DHT22;3199;49.102;8.856;2023-03-01T05:08:11;-1.80;99.90
6333;DHT22;3199;49.102;8.856;2023-03-01T05:10:45;-1.80;99.90
6333;DHT22;3199;49.102;8.856;2023-03-01T05:13:12;-1.80;99.90
6333;DHT22;3199;49.102;8.856;2023-03-01T05:15:56;-1.90;99.90
6333;DHT22;3199;49.102;8.856;2023-03-01T05:18:23;-1.90;99.90
6333;DHT22;3199;49.102;8.856;2023-03-01T05:20:52;-1.90;99.90
6333;DHT22;3199;49.102;8.856;2023-03-01T05:23:18;-1.90;99.90
6333;DHT22;3199;49.102;8.856;2023-03-01T05:25:44;-1.90;99.90
6333;DHT22;3199;49.102;8.856;2023-03-01T05:28:13;-1.90;99.90
6333;DHT22;3199;49.102;8.856;2023-03-01T05:30:39;-1.90;99.90
6333;DHT22;3199;49.102;8.856;2023-03-01T05:33:05;-1.90;99.90
6333;DHT22;3199;49.102;8.856;2023-03-01T05:35:35;-1.90;99.90
6333;DHT22;3199;49.102;8.856;2023-03-01T05:38:01;-1.90;99.90
6333;DHT22;3199;49.102;8.856;2023-03-01T05:40:26;-1.90;99.90
6333;DHT22;3199;49.102;8.856;2023-03-01T05:42:54;-1.90;99.90
6333;DHT22;3199;49.102;8.856;2023-03-01T05:45:21;-1.90;99.90
6333;DHT22;3199;49.102;8.856;2023-03-01T05:47:48;-1.90;99.90
6333;DHT22;3199;49.102;8.856;2023-03-01T05:50:17;-1.90;99.90
6333;DHT22;3199;49.102;8.856;2023-03-01T05:52:47;-1.90;99.90
6333;DHT22;3199;49.102;8.856;2023-03-01T05:55:15;-2.00;99.90
6333;DHT22;3199;49.102;8.856;2023-03-01T05:57:41;-1.90;99.90
6333;DHT22;3199;49.102;8.856;2023-03-01T06:00:07;-1.90;99.90
6333;DHT22;3199;49.102;8.856;2023-03-01T06:02:33;-2.00;99.90
6333;DHT22;3199;49.102;8.856;2023-03-01T06:04:58;-1.90;99.90
6333;DHT22;3199;49.102;8.856;2023-03-01T06:07:24;-1.90;99.90
6333;DHT22;3199;49.102;8.856;2023-03-01T06:09:49;-1.90;99.90
6333;DHT22;3199;49.102;8.856;2023-03-01T06:12:15;-2.00;99.90
6333;DHT22;3199;49.102;8.856;2023-03-01T06:14:40;-2.00;99.90
6333;DHT22;3199;49.102;8.856;2023-03-01T06:17:06;-2.00;99.90
6333;DHT22;3199;49.102;8.856;2023-03-01T06:19:31;-2.00;99.90
6333;DHT22;3199;49.102;8.856;2023-03-01T06:21:57;-2.00;99.90
6333;DHT22;3199;49.102;8.856;2023-03-01T06:24:22;-2.10;99.90
6333;DHT22;3199;49.102;8.856;2023-03-01T06:26:48;-2.00;99.90
6333;DHT22;3199;49.102;8.856;2023-03-01T06:29:13;-2.00;99.90
6333;DHT22;3199;49.102;8.856;2023-03-01T06:31:39;-2.10;99.90
6333;DHT22;3199;49.102;8.856;2023-03-01T06:34:05;-2.00;99.90
6333;DHT22;3199;49.102;8.856;2023-03-01T06:36:30;-2.10;99.90
6333;DHT22;3199;49.102;8.856;2023-03-01T06:38:56;-2.00;99.90
6333;DHT22;3199;49.102;8.856;2023-03-01T06:41:21;-2.00;99.90
6333;DHT22;3199;49.102;8.856;2023-03-01T06:43:47;-2.00;99.90
6333;DHT22;3199;49.102;8.856;2023-03-01T06:46:12;-2.00;99.90
6333;DHT22;3199;49.102;8.856;2023-03-01T06:48:38;-2.00;99.90
6333;DHT22;3199;49.102;8.856;2023-03-01T06:51:04;-1.90;99.90
6333;DHT22;3199;49.102;8.856;2023-03-01T06:53:29;-1.90;99.90
6333;DHT22;3199;49.102;8.856;2023-03-01T06:55:56;-1.80;99.90
6333;DHT22;3199;49.102;8.856;2023-03-01T06:58:22;-1.80;99.90
6333;DHT22;3199;49.102;8.856;2023-03-01T07:00:47;-1.80;99.90
6333;DHT22;3199;49.102;8.856;2023-03-01T07:03:13;-1.70;99.90
6333;DHT22;3199;49.102;8.856;2023-03-01T07:05:38;-1.70;99.90
6333;DHT22;3199;49.102;8.856;2023-03-01T07:08:04;-1.60;99.90
6333;DHT22;3199;49.102;8.856;2023-03-01T07:10:29;-1.50;99.90
6333;DHT22;3199;49.102;8.856;2023-03-01T07:12:56;-1.30;99.90
6333;DHT22;3199;49.102;8.856;2023-03-01T07:15:22;-1.20;99.90
6333;DHT22;3199;49.102;8.856;2023-03-01T07:17:48;-0.90;99.90
6333;DHT22;3199;49.102;8.856;2023-03-01T07:20:16;-0.70;99.90
6333;DHT22;3199;49.102;8.856;2023-03-01T07:22:42;-0.30;99.90
6333;DHT22;3199;49.102;8.856;2023-03-01T07:25:09;0.00;99.90
6333;DHT22;3199;49.102;8.856;2023-03-01T07:27:35;0.40;99.90
6333;DHT22;3199;49.102;8.856;2023-03-01T07:30:02;0.70;99.90
6333;DHT22;3199;49.102;8.856;2023-03-01T07:32:27;1.00;99.90
6333;DHT22;3199;49.102;8.856;2023-03-01T07:34:53;1.30;99.90
6333;DHT22;3199;49.102;8.856;2023-03-01T07:37:18;1.50;99.90
6333;DHT22;3199;49.102;8.856;2023-03-01T07:39:44;1.70;99.90
6333;DHT22;3199;49.102;8.856;2023-03-01T07:42:09;1.90;99.90
6333;DHT22;3199;49.102;8.856;2023-03-01T07:44:35;2.10;99.80
6333;DHT22;3199;49.102;8.856;2023-03-01T07:47:01;2.40;99.40
6333;DHT22;3199;49.102;8.856;2023-03-01T07:49:26;2.70;98.50
6333;DHT22;3199;49.102;8.856;2023-03-01T07:51:52;2.80;97.70
6333;DHT22;3199;49.102;8.856;2023-03-01T07:54:18;3.00;97.50
6333;DHT22;3199;49.102;8.856;2023-03-01T07:56:43;3.00;96.50
6333;DHT22;3199;49.102;8.856;2023-03-01T07:59:09;3.10;96.50
6333;DHT22;3199;49.102;8.856;2023-03-01T08:01:35;3.20;96.10
6333;DHT22;3199;49.102;8.856;2023-03-01T08:04:00;3.30;95.80
6333;DHT22;3199;49.102;8.856;2023-03-01T08:06:27;3.50;95.50
6333;DHT22;3199;49.102;8.856;2023-03-01T08:08:52;3.70;95.00
6333;DHT22;3199;49.102;8.856;2023-03-01T08:11:21;3.90;95.10
6333;DHT22;3199;49.102;8.856;2023-03-01T08:13:48;4.10;94.50
6333;DHT22;3199;49.102;8.856;2023-03-01T08:16:15;4.20;93.20
6333;DHT22;3199;49.102;8.856;2023-03-01T08:18:41;4.20;92.90
6333;DHT22;3199;49.102;8.856;2023-03-01T08:21:10;4.20;93.00
6333;DHT22;3199;49.102;8.856;2023-03-01T08:23:36;4.50;93.30
6333;DHT22;3199;49.102;8.856;2023-03-01T08:26:07;4.70;92.40
6333;DHT22;3199;49.102;8.856;2023-03-01T08:28:34;4.90;91.60
6333;DHT22;3199;49.102;8.856;2023-03-01T08:31:00;4.70;90.50
6333;DHT22;3199;49.102;8.856;2023-03-01T08:33:25;4.70;90.80
6333;DHT22;3199;49.102;8.856;2023-03-01T08:35:51;4.60;90.60
6333;DHT22;3199;49.102;8.856;2023-03-01T08:38:16;4.50;90.80
6333;DHT22;3199;49.102;8.856;2023-03-01T08:40:42;4.40;90.30
6333;DHT22;3199;49.102;8.856;2023-03-01T08:43:07;4.30;90.60
6333;DHT22;3199;49.102;8.856;2023-03-01T08:45:33;4.40;90.50
6333;DHT22;3199;49.102;8.856;2023-03-01T08:47:58;4.40;90.50
6333;DHT22;3199;49.102;8.856;2023-03-01T08:50:24;4.50;90.20
6333;DHT22;3199;49.102;8.856;2023-03-01T08:52:50;4.50;90.40
6333;DHT22;3199;49.102;8.856;2023-03-01T08:55:16;4.50;89.90
6333;DHT22;3199;49.102;8.856;2023-03-01T08:57:43;4.50;90.40
6333;DHT22;3199;49.102;8.856;2023-03-01T09:00:10;4.50;89.80
6333;DHT22;3199;49.102;8.856;2023-03-01T09:02:36;4.40;90.20
6333;DHT22;3199;49.102;8.856;2023-03-01T09:05:02;4.40;90.30
6333;DHT22;3199;49.102;8.856;2023-03-01T09:07:28;4.50;90.50
6333;DHT22;3199;49.102;8.856;2023-03-01T09:09:54;4.60;90.20
6333;DHT22;3199;49.102;8.856;2023-03-01T09:12:20;4.70;90.00
6333;DHT22;3199;49.102;8.856;2023-03-01T09:14:46;4.60;89.60
6333;DHT22;3199;49.102;8.856;2023-03-01T09:17:11;4.70;90.20
6333;DHT22;3199;49.102;8.856;2023-03-01T09:19:37;4.80;89.90
6333;DHT22;3199;49.102;8.856;2023-03-01T09:22:04;4.80;88.80
6333;DHT22;3199;49.102;8.856;2023-03-01T09:24:29;4.80;88.90
6333;DHT22;3199;49.102;8.856;2023-03-01T09:26:55;4.90;89.40
6333;DHT22;3199;49.102;8.856;2023-03-01T09:29:22;4.90;89.30
6333;DHT22;3199;49.102;8.856;2023-03-01T09:31:47;5.10;89.50
6333;DHT22;3199;49.102;8.856;2023-03-01T09:34:13;5.30;88.70
6333;DHT22;3199;49.102;8.856;2023-03-01T09:36:41;5.40;88.10
6333;DHT22;3199;49.102;8.856;2023-03-01T09:39:07;5.40;86.70
6333;DHT22;3199;49.102;8.856;2023-03-01T09:44:12;5.60;86.90
6333;DHT22;3199;49.102;8.856;2023-03-01T09:46:43;5.70;86.80
6333;DHT22;3199;49.102;8.856;2023-03-01T09:49:15;5.80;86.60
6333;DHT22;3199;49.102;8.856;2023-03-01T09:51:43;5.90;85.90
6333;DHT22;3199;49.102;8.856;2023-03-01T09:54:13;5.90;84.70
6333;DHT22;3199;49.102;8.856;2023-03-01T09:56:47;5.80;84.10
6333;DHT22;3199;49.102;8.856;2023-03-01T10:04:51;5.90;84.60
6333;DHT22;3199;49.102;8.856;2023-03-01T10:10:06;6.10;85.50
6333;DHT22;3199;49.102;8.856;2023-03-01T10:12:37;6.30;85.20
6333;DHT22;3199;49.102;8.856;2023-03-01T10:15:14;6.40;83.70
6333;DHT22;3199;49.102;8.856;2023-03-01T10:17:56;6.50;83.00
6333;DHT22;3199;49.102;8.856;2023-03-01T10:23:09;6.70;81.80
6333;DHT22;3199;49.102;8.856;2023-03-01T10:28:27;6.80;82.20
6333;DHT22;3199;49.102;8.856;2023-03-01T10:30:55;7.00;80.70
6333;DHT22;3199;49.102;8.856;2023-03-01T10:33:24;6.90;80.10
6333;DHT22;3199;49.102;8.856;2023-03-01T10:35:51;6.80;80.00
6333;DHT22;3199;49.102;8.856;2023-03-01T10:38:18;6.70;81.40
6333;DHT22;3199;49.102;8.856;2023-03-01T10:40:57;6.70;80.10
6333;DHT22;3199;49.102;8.856;2023-03-01T10:43:29;6.80;80.90
6333;DHT22;3199;49.102;8.856;2023-03-01T10:45:56;7.00;81.00
6333;DHT22;3199;49.102;8.856;2023-03-01T10:48:26;7.20;79.20
6333;DHT22;3199;49.102;8.856;2023-03-01T10:56:33;7.50;78.10
6333;DHT22;3199;49.102;8.856;2023-03-01T10:59:01;7.50;77.00
6333;DHT22;3199;49.102;8.856;2023-03-01T11:01:30;7.40;77.10
6333;DHT22;3199;49.102;8.856;2023-03-01T11:06:33;7.20;76.60
6333;DHT22;3199;49.102;8.856;2023-03-01T11:09:15;7.20;77.10
6333;DHT22;3199;49.102;8.856;2023-03-01T11:11:41;7.10;76.60
6333;DHT22;3199;49.102;8.856;2023-03-01T11:16:48;7.10;78.70
6333;DHT22;3199;49.102;8.856;2023-03-01T11:19:20;7.30;77.20
6333;DHT22;3199;49.102;8.856;2023-03-01T11:22:06;7.40;76.90
6333;DHT22;3199;49.102;8.856;2023-03-01T11:24:40;7.20;76.20
6333;DHT22;3199;49.102;8.856;2023-03-01T11:27:15;7.30;76.80
6333;DHT22;3199;49.102;8.856;2023-03-01T11:30:30;7.40;76.90
6333;DHT22;3199;49.102;8.856;2023-03-01T11:32:36;7.60;77.10
6333;DHT22;3199;49.102;8.856;2023-03-01T11:35:09;7.80;76.10
6333;DHT22;3199;49.102;8.856;2023-03-01T11:48:48;8.00;73.50
6333;DHT22;3199;49.102;8.856;2023-03-01T11:57:39;7.70;74.00
6333;DHT22;3199;49.102;8.856;2023-03-01T12:03:28;7.70;73.90
6333;DHT22;3199;49.102;8.856;2023-03-01T12:06:21;7.60;75.30
6333;DHT22;3199;49.102;8.856;2023-03-01T12:12:00;7.90;75.90
6333;DHT22;3199;49.102;8.856;2023-03-01T12:23:16;7.70;74.40
6333;DHT22;3199;49.102;8.856;2023-03-01T12:33:44;7.80;74.00
6333;DHT22;3199;49.102;8.856;2023-03-01T12:39:33;8.00;74.40
6333;DHT22;3199;49.102;8.856;2023-03-01T12:50:43;7.90;72.40
6333;DHT22;3199;49.102;8.856;2023-03-01T12:53:32;7.70;73.50
6333;DHT22;3199;49.102;8.856;2023-03-01T12:56:02;7.50;74.10
6333;DHT22;3199;49.102;8.856;2023-03-01T12:59:09;7.50;74.60
6333;DHT22;3199;49.102;8.856;2023-03-01T13:01:42;7.60;74.80
6333;DHT22;3199;49.102;8.856;2023-03-01T13:07:16;7.60;74.80
6333;DHT22;3199;49.102;8.856;2023-03-01T13:09:58;7.70;74.80
6333;DHT22;3199;49.102;8.856;2023-03-01T13:15:34;8.00;73.80
6333;DHT22;3199;49.102;8.856;2023-03-01T13:18:26;7.90;73.20
6333;DHT22;3199;49.102;8.856;2023-03-01T13:20:58;7.90;73.30
6333;DHT22;3199;49.102;8.856;2023-03-01T13:23:30;8.00;73.20
6333;DHT22;3199;49.102;8.856;2023-03-01T13:31:04;7.90;74.60
6333;DHT22;3199;49.102;8.856;2023-03-01T13:35:57;8.00;73.90
6333;DHT22;3199;49.102;8.856;2023-03-01T13:38:46;8.00;73.20
6333;DHT22;3199;49.102;8.856;2023-03-01T13:41:14;8.00;73.30
6333;DHT22;3199;49.102;8.856;2023-03-01T13:43:42;8.00;72.90
6333;DHT22;3199;49.102;8.856;2023-03-01T13:46:21;7.90;73.80
6333;DHT22;3199;49.102;8.856;2023-03-01T13:48:50;7.90;74.30
6333;DHT22;3199;49.102;8.856;2023-03-01T13:51:22;7.90;74.00
6333;DHT22;3199;49.102;8.856;2023-03-01T13:53:48;8.00;74.80
6333;DHT22;3199;49.102;8.856;2023-03-01T13:56:24;8.10;72.20
6333;DHT22;3199;49.102;8.856;2023-03-01T13:59:01;8.00;72.10
6333;DHT22;3199;49.102;8.856;2023-03-01T14:01:33;7.90;72.60
6333;DHT22;3199;49.102;8.856;2023-03-01T14:04:00;7.80;72.80
6333;DHT22;3199;49.102;8.856;2023-03-01T14:06:28;7.80;72.50
6333;DHT22;3199;49.102;8.856;2023-03-01T14:09:20;7.70;72.40
6333;DHT22;3199;49.102;8.856;2023-03-01T14:14:42;7.60;73.20
6333;DHT22;3199;49.102;8.856;2023-03-01T14:17:13;7.60;72.90
6333;DHT22;3199;49.102;8.856;2023-03-01T14:19:43;7.60;73.70
6333;DHT22;3199;49.102;8.856;2023-03-01T14:22:18;7.60;73.50
6333;DHT22;3199;49.102;8.856;2023-03-01T14:24:58;7.50;73.60
6333;DHT22;3199;49.102;8.856;2023-03-01T14:27:38;7.60;73.70
6333;DHT22;3199;49.102;8.856;2023-03-01T14:32:37;7.60;73.10
6333;DHT22;3199;49.102;8.856;2023-03-01T14:35:16;7.50;73.30
6333;DHT22;3199;49.102;8.856;2023-03-01T14:37:44;7.60;73.60
6333;DHT22;3199;49.102;8.856;2023-03-01T14:40:24;7.60;73.40
6333;DHT22;3199;49.102;8.856;2023-03-01T14:42:50;7.60;73.70
6333;DHT22;3199;49.102;8.856;2023-03-01T14:45:16;7.60;73.60
6333;DHT22;3199;49.102;8.856;2023-03-01T14:47:44;7.50;73.50
6333;DHT22;3199;49.102;8.856;2023-03-01T14:50:28;7.60;72.90
6333;DHT22;3199;49.102;8.856;2023-03-01T14:52:59;7.50;73.20
6333;DHT22;3199;49.102;8.856;2023-03-01T14:55:35;7.50;73.70
6333;DHT22;3199;49.102;8.856;2023-03-01T14:58:09;7.50;73.70
6333;DHT22;3199;49.102;8.856;2023-03-01T15:00:36;7.50;73.30
6333;DHT22;3199;49.102;8.856;2023-03-01T15:03:18;7.50;73.30
6333;DHT22;3199;49.102;8.856;2023-03-01T15:05:45;7.50;73.00
6333;DHT22;3199;49.102;8.856;2023-03-01T15:08:20;7.40;73.30
6333;DHT22;3199;49.102;8.856;2023-03-01T15:13:38;7.30;73.60
6333;DHT22;3199;49.102;8.856;2023-03-01T15:16:10;7.30;73.40
6333;DHT22;3199;49.102;8.856;2023-03-01T15:18:36;7.30;73.40
6333;DHT22;3199;49.102;8.856;2023-03-01T15:21:07;7.30;73.50
6333;DHT22;3199;49.102;8.856;2023-03-01T15:23:34;7.30;73.50
6333;DHT22;3199;49.102;8.856;2023-03-01T15:26:00;7.30;73.80
6333;DHT22;3199;49.102;8.856;2023-03-01T15:28:29;7.30;74.00
6333;DHT22;3199;49.102;8.856;2023-03-01T15:31:21;7.30;73.50
6333;DHT22;3199;49.102;8.856;2023-03-01T15:33:47;7.20;73.80
6333;DHT22;3199;49.102;8.856;2023-03-01T15:38:59;7.20;74.00
6333;DHT22;3199;49.102;8.856;2023-03-01T15:41:31;7.20;73.90
6333;DHT22;3199;49.102;8.856;2023-03-01T15:44:14;7.20;73.80
6333;DHT22;3199;49.102;8.856;2023-03-01T15:46:39;7.20;74.00
6333;DHT22;3199;49.102;8.856;2023-03-01T15:52:26;7.10;74.10
6333;DHT22;3199;49.102;8.856;2023-03-01T15:55:02;7.10;74.00
6333;DHT22;3199;49.102;8.856;2023-03-01T15:57:28;7.00;74.10
6333;DHT22;3199;49.102;8.856;2023-03-01T15:59:54;7.00;74.50
6333;DHT22;3199;49.102;8.856;2023-03-01T16:02:20;7.10;74.90
6333;DHT22;3199;49.102;8.856;2023-03-01T16:04:47;7.00;75.00
6333;DHT22;3199;49.102;8.856;2023-03-01T16:07:14;7.00;75.10
6333;DHT22;3199;49.102;8.856;2023-03-01T16:09:39;7.00;74.80
6333;DHT22;3199;49.102;8.856;2023-03-01T16:12:05;7.00;74.50
6333;DHT22;3199;49.102;8.856;2023-03-01T16:14:31;7.00;74.40
6333;DHT22;3199;49.102;8.856;2023-03-01T16:16:56;7.00;74.40
6333;DHT22;3199;49.102;8.856;2023-03-01T16:19:22;6.90;74.40
6333;DHT22;3199;49.102;8.856;2023-03-01T16:21:47;6.90;74.60
6333;DHT22;3199;49.102;8.856;2023-03-01T16:24:14;6.80;74.60
6333;DHT22;3199;49.102;8.856;2023-03-01T16:26:40;6.80;74.90
6333;DHT22;3199;49.102;8.856;2023-03-01T16:29:07;6.80;75.20
6333;DHT22;3199;49.102;8.856;2023-03-01T16:31:32;6.80;75.30
6333;DHT22;3199;49.102;8.856;2023-03-01T16:33:59;6.70;75.40
6333;DHT22;3199;49.102;8.856;2023-03-01T16:36:26;6.70;75.60
6333;DHT22;3199;49.102;8.856;2023-03-01T16:38:54;6.70;75.80
6333;DHT22;3199;49.102;8.856;2023-03-01T16:41:22;6.60;76.10
6333;DHT22;3199;49.102;8.856;2023-03-01T16:43:48;6.60;76.10
6333;DHT22;3199;49.102;8.856;2023-03-01T16:46:17;6.50;76.40
6333;DHT22;3199;49.102;8.856;2023-03-01T16:48:43;6.50;76.60
6333;DHT22;3199;49.102;8.856;2023-03-01T16:51:09;6.50;76.60
6333;DHT22;3199;49.102;8.856;2023-03-01T16:53:35;6.40;76.80
6333;DHT22;3199;49.102;8.856;2023-03-01T16:56:03;6.30;76.90
6333;DHT22;3199;49.102;8.856;2023-03-01T16:58:29;6.30;77.20
6333;DHT22;3199;49.102;8.856;2023-03-01T17:00:55;6.30;77.40
6333;DHT22;3199;49.102;8.856;2023-03-01T17:03:23;6.20;77.50
6333;DHT22;3199;49.102;8.856;2023-03-01T17:05:49;6.10;77.60
6333;DHT22;3199;49.102;8.856;2023-03-01T17:08:15;6.10;77.90
6333;DHT22;3199;49.102;8.856;2023-03-01T17:10:40;6.00;78.00
6333;DHT22;3199;49.102;8.856;2023-03-01T17:13:08;6.00;78.40
6333;DHT22;3199;49.102;8.856;2023-03-01T17:15:34;5.90;78.60
6333;DHT22;3199;49.102;8.856;2023-03-01T17:18:00;5.90;78.80
6333;DHT22;3199;49.102;8.856;2023-03-01T17:20:26;5.80;79.10
6333;DHT22;3199;49.102;8.856;2023-03-01T17:22:52;5.80;79.30
6333;DHT22;3199;49.102;8.856;2023-03-01T17:25:17;5.70;79.50
6333;DHT22;3199;49.102;8.856;2023-03-01T17:27:43;5.60;79.70
6333;DHT22;3199;49.102;8.856;2023-03-01T17:30:11;5.60;80.00
6333;DHT22;3199;49.102;8.856;2023-03-01T17:32:37;5.50;80.10
6333;DHT22;3199;49.102;8.856;2023-03-01T17:35:03;5.40;80.30
6333;DHT22;3199;49.102;8.856;2023-03-01T17:37:28;5.40;80.60
6333;DHT22;3199;49.102;8.856;2023-03-01T17:39:54;5.30;80.90
6333;DHT22;3199;49.102;8.856;2023-03-01T17:42:19;5.30;81.10
6333;DHT22;3199;49.102;8.856;2023-03-01T17:44:45;5.30;81.20
6333;DHT22;3199;49.102;8.856;2023-03-01T17:47:11;5.20;81.40
6333;DHT22;3199;49.102;8.856;2023-03-01T17:49:36;5.10;81.60
6333;DHT22;3199;49.102;8.856;2023-03-01T17:52:02;5.10;81.80
6333;DHT22;3199;49.102;8.856;2023-03-01T17:54:27;5.00;81.80
6333;DHT22;3199;49.102;8.856;2023-03-01T17:56:54;5.00;82.10
6333;DHT22;3199;49.102;8.856;2023-03-01T17:59:20;4.90;82.20
6333;DHT22;3199;49.102;8.856;2023-03-01T18:01:46;4.80;82.30
6333;DHT22;3199;49.102;8.856;2023-03-01T18:04:12;4.80;82.60
6333;DHT22;3199;49.102;8.856;2023-03-01T18:06:38;4.70;82.80
6333;DHT22;3199;49.102;8.856;2023-03-01T18:09:05;4.70;83.10
6333;DHT22;3199;49.102;8.856;2023-03-01T18:11:32;4.60;83.30